createdAt,value
2023-04-16T00:00:41.173Z,101079.59
2023-04-16T00:03:14.658Z,101089.09
2023-04-16T00:05:45.554Z,101087.28
2023-04-16T00:08:16.717Z,101083.31
2023-04-16T00:10:47.441Z,101087.63
2023-04-16T00:13:18.122Z,101077.84
2023-04-16T00:15:48.855Z,101067.69
2023-04-16T00:18:22.421Z,101084.22
2023-04-16T00:20:53.696Z,101081.56
2023-04-16T00:23:25.437Z,101088.47
2023-04-16T00:25:57.448Z,101077.34
2023-04-16T00:28:28.210Z,101081.53
2023-04-16T00:30:59.700Z,101068.56
2023-04-16T00:33:33.113Z,101076.41
2023-04-16T00:36:04.510Z,101079.34
2023-04-16T00:38:35.245Z,101074.72
2023-04-16T00:41:06.291Z,101085.94
2023-04-16T00:43:36.978Z,101080.59
2023-04-16T00:46:09.067Z,101083.66
2023-04-16T00:48:44.263Z,101085.13
2023-04-16T00:51:15.201Z,101088.69
2023-04-16T00:53:47.472Z,101095.81
2023-04-16T00:56:18.893Z,101091.72
2023-04-16T00:58:49.570Z,101094.94
2023-04-16T01:01:20.503Z,101095.50
2023-04-16T01:03:54.207Z,101080.59
2023-04-16T01:06:25.087Z,101083.69
2023-04-16T01:08:56.181Z,101109.69
2023-04-16T01:11:26.943Z,101111.16
2023-04-16T01:13:57.815Z,101111.72
2023-04-16T01:16:29.677Z,101119.66
2023-04-16T01:19:03.214Z,101117.31
2023-04-16T01:21:36.611Z,101106.63
2023-04-16T01:24:07.760Z,101111.00
2023-04-16T01:26:38.596Z,101125.34
2023-04-16T01:29:09.676Z,101122.16
2023-04-16T01:31:40.582Z,101129.72
2023-04-16T01:34:19.968Z,101123.88
2023-04-16T01:36:53.480Z,101125.00
2023-04-16T01:39:24.296Z,101128.09
2023-04-16T01:41:55.070Z,101130.44
2023-04-16T01:44:26.737Z,101115.59
2023-04-16T01:46:57.540Z,101131.19
2023-04-16T01:49:29.385Z,101132.38
2023-04-16T01:52:02.708Z,101136.34
2023-04-16T01:54:33.877Z,101137.06
2023-04-16T01:57:04.715Z,101138.53
2023-04-16T01:59:35.442Z,101146.13
2023-04-16T02:02:11.415Z,101149.03
2023-04-16T02:04:43.779Z,101148.56
2023-04-16T02:07:17.195Z,101146.59
2023-04-16T02:09:48.193Z,101156.09
2023-04-16T02:12:19.281Z,101149.66
2023-04-16T02:14:51.809Z,101130.06
2023-04-16T02:17:23.386Z,101139.16
2023-04-16T02:19:55.158Z,101145.94
2023-04-16T02:22:29.224Z,101144.34
2023-04-16T02:24:59.991Z,101153.88
2023-04-16T02:27:30.824Z,101151.09
2023-04-16T02:30:11.505Z,101166.16
2023-04-16T02:32:42.858Z,101160.63
2023-04-16T02:35:14.394Z,101141.72
2023-04-16T02:37:47.863Z,101160.84
2023-04-16T02:40:18.820Z,101136.59
2023-04-16T02:42:49.654Z,101161.56
2023-04-16T02:45:20.503Z,101164.97
2023-04-16T02:47:51.603Z,101164.97
2023-04-16T02:50:22.431Z,101170.00
2023-04-16T02:52:55.779Z,101156.66
2023-04-16T02:55:26.556Z,101174.00
2023-04-16T02:57:57.290Z,101175.97
2023-04-16T03:00:28.022Z,101181.16
2023-04-16T03:02:58.794Z,101176.84
2023-04-16T03:05:29.923Z,101191.34
2023-04-16T03:08:03.483Z,101194.25
2023-04-16T03:10:35.223Z,101186.19
2023-04-16T03:13:07.048Z,101195.75
2023-04-16T03:15:37.908Z,101185.13
2023-04-16T03:18:08.961Z,101192.50
2023-04-16T03:20:39.676Z,101171.97
2023-04-16T03:23:13.222Z,101192.34
2023-04-16T03:25:46.893Z,101197.53
2023-04-16T03:28:21.234Z,101195.16
2023-04-16T03:30:55.787Z,101201.44
2023-04-16T03:33:26.532Z,101200.19
2023-04-16T03:36:01.129Z,101199.16
2023-04-16T03:38:37.155Z,101193.78
2023-04-16T03:41:08.063Z,101182.06
2023-04-16T03:43:39.622Z,101194.75
2023-04-16T03:46:10.529Z,101193.69
2023-04-16T03:48:41.467Z,101207.28
2023-04-16T03:51:12.144Z,101187.63
2023-04-16T03:53:46.202Z,101200.47
2023-04-16T03:56:18.390Z,101199.34
2023-04-16T03:58:49.265Z,101203.66
2023-04-16T04:01:20.160Z,101193.47
2023-04-16T04:03:51.606Z,101157.56
2023-04-16T04:06:22.575Z,101196.84
2023-04-16T04:08:56.067Z,101176.97
2023-04-16T04:11:26.977Z,101205.94
2023-04-16T04:13:58.514Z,101205.41
2023-04-16T04:16:29.315Z,101207.56
2023-04-16T04:19:02.537Z,101199.69
2023-04-16T04:21:33.515Z,101203.50
2023-04-16T04:24:07.225Z,101209.56
2023-04-16T04:26:38.242Z,101211.88
2023-04-16T04:29:09.569Z,101217.97
2023-04-16T04:31:41.136Z,101217.75
2023-04-16T04:34:12.271Z,101226.56
2023-04-16T04:36:43.218Z,101222.13
2023-04-16T04:39:20.829Z,101226.06
2023-04-16T04:41:53.220Z,101227.34
2023-04-16T04:44:24.216Z,101220.53
2023-04-16T04:46:55.748Z,101228.41
2023-04-16T04:49:26.622Z,101225.16
2023-04-16T04:51:57.515Z,101238.38
2023-04-16T04:54:31.326Z,101240.16
2023-04-16T04:57:02.622Z,101245.75
2023-04-16T04:59:34.149Z,101246.63
2023-04-16T05:02:05.864Z,101247.38
2023-04-16T05:04:36.593Z,101248.44
2023-04-16T05:07:07.410Z,101225.75
2023-04-16T05:09:40.809Z,101248.44
2023-04-16T05:12:11.981Z,101256.63
2023-04-16T05:14:42.584Z,101255.56
2023-04-16T05:17:13.615Z,101258.78
2023-04-16T05:19:44.720Z,101237.72
2023-04-16T05:22:19.193Z,101261.09
2023-04-16T05:24:52.639Z,101265.22
2023-04-16T05:27:23.309Z,101260.41
2023-04-16T05:29:54.118Z,101268.44
2023-04-16T05:32:26.211Z,101251.47
2023-04-16T05:34:57.211Z,101271.31
2023-04-16T05:37:27.944Z,101271.66
2023-04-16T05:40:01.202Z,101272.94
2023-04-16T05:42:32.340Z,101276.34
2023-04-16T05:45:05.857Z,101279.03
2023-04-16T05:47:36.763Z,101287.06
2023-04-16T05:50:08.030Z,101281.50
2023-04-16T05:52:39.100Z,101280.25
2023-04-16T05:55:13.593Z,101285.59
2023-04-16T05:57:44.411Z,101291.28
2023-04-16T06:00:15.747Z,101295.25
2023-04-16T06:02:46.690Z,101304.19
2023-04-16T06:05:17.736Z,101299.56
2023-04-16T06:07:48.546Z,101302.56
2023-04-16T06:10:22.158Z,101302.69
2023-04-16T06:12:52.987Z,101308.44
2023-04-16T06:15:23.947Z,101313.81
2023-04-16T06:17:54.584Z,101313.34
2023-04-16T06:20:25.630Z,101321.75
2023-04-16T06:22:56.424Z,101318.31
2023-04-16T06:25:29.754Z,101326.56
2023-04-16T06:28:00.489Z,101322.41
2023-04-16T06:30:31.359Z,101322.41
2023-04-16T06:33:02.325Z,101327.03
2023-04-16T06:35:33.278Z,101319.88
2023-04-16T06:38:04.092Z,101330.09
2023-04-16T06:40:37.746Z,101330.59
2023-04-16T06:43:08.820Z,101315.75
2023-04-16T06:45:39.764Z,101331.28
2023-04-16T06:48:10.459Z,101339.38
2023-04-16T06:50:41.486Z,101336.88
2023-04-16T06:53:12.266Z,101336.28
2023-04-16T06:55:45.711Z,101333.28
2023-04-16T06:58:16.919Z,101332.72
2023-04-16T07:00:48.257Z,101337.66
2023-04-16T07:03:19.435Z,101344.03
2023-04-16T07:05:50.418Z,101346.13
2023-04-16T07:08:21.104Z,101337.66
2023-04-16T07:10:54.530Z,101345.66
2023-04-16T07:13:25.404Z,101353.56
2023-04-16T07:15:56.248Z,101346.81
2023-04-16T07:18:26.872Z,101348.84
2023-04-16T07:20:57.724Z,101349.00
2023-04-16T07:23:28.442Z,101352.13
2023-04-16T07:26:01.854Z,101355.47
2023-04-16T07:28:32.496Z,101357.66
2023-04-16T07:31:03.350Z,101369.66
2023-04-16T07:33:34.004Z,101368.72
2023-04-16T07:36:05.136Z,101376.97
2023-04-16T07:38:35.811Z,101362.22
2023-04-16T07:41:09.352Z,101372.06
2023-04-16T07:43:40.352Z,101363.72
2023-04-16T07:46:11.164Z,101376.94
2023-04-16T07:48:41.925Z,101367.84
2023-04-16T07:51:12.640Z,101378.63
2023-04-16T07:53:43.761Z,101380.16
2023-04-16T07:56:17.050Z,101376.56
2023-04-16T07:58:47.804Z,101387.53
2023-04-16T08:01:18.819Z,101391.25
2023-04-16T08:03:49.849Z,101391.63
2023-04-16T08:06:20.767Z,101394.59
2023-04-16T08:08:53.450Z,101397.28
2023-04-16T08:11:27.556Z,101405.34
2023-04-16T08:13:58.946Z,101396.19
2023-04-16T08:16:29.777Z,101401.41
2023-04-16T08:19:01.315Z,101399.63
2023-04-16T08:21:32.029Z,101411.13
2023-04-16T08:24:02.709Z,101405.78
2023-04-16T08:26:36.139Z,101409.44
2023-04-16T08:29:07.201Z,101416.16
2023-04-16T08:31:38.397Z,101414.38
2023-04-16T08:34:11.631Z,101417.22
2023-04-16T08:36:46.196Z,101425.56
2023-04-16T08:39:17.300Z,101426.72
2023-04-16T08:41:52.966Z,101424.53
2023-04-16T08:44:28.556Z,101426.59
2023-04-16T08:47:01.322Z,101436.69
2023-04-16T08:49:33.032Z,101433.94
2023-04-16T08:52:04.978Z,101423.72
2023-04-16T08:54:41.876Z,101434.78
2023-04-16T08:57:19.573Z,101439.69
2023-04-16T08:59:51.177Z,101433.44
2023-04-16T09:02:22.202Z,101441.31
2023-04-16T09:04:54.148Z,101441.97
2023-04-16T09:07:27.031Z,101441.09
2023-04-16T09:09:57.987Z,101442.38
2023-04-16T09:12:31.417Z,101440.19
2023-04-16T09:15:04.965Z,101442.88
2023-04-16T09:17:37.737Z,101445.78
2023-04-16T09:20:12.704Z,101444.88
2023-04-16T09:22:43.606Z,101439.63
2023-04-16T09:25:14.625Z,101436.63
2023-04-16T09:27:48.631Z,101446.28
2023-04-16T09:30:24.824Z,101457.66
2023-04-16T09:33:15.865Z,101455.53
2023-04-16T09:35:50.677Z,101460.56
2023-04-16T09:38:21.926Z,101463.31
2023-04-16T09:41:09.345Z,101455.09
2023-04-16T09:43:52.439Z,101462.34
2023-04-16T09:46:23.735Z,101458.53
2023-04-16T09:48:54.471Z,101467.13
2023-04-16T09:51:26.427Z,101462.34
2023-04-16T09:53:59.857Z,101467.13
2023-04-16T09:56:30.862Z,101466.66
2023-04-16T09:59:05.661Z,101436.78
2023-04-16T10:01:36.274Z,101470.84
2023-04-16T10:04:10.411Z,101479.28
2023-04-16T10:06:41.139Z,101477.81
2023-04-16T10:09:12.748Z,101470.66
2023-04-16T10:11:43.820Z,101482.03
2023-04-16T10:14:17.219Z,101483.81
2023-04-16T10:16:48.421Z,101490.53
2023-04-16T10:19:19.957Z,101489.28
2023-04-16T10:21:51.337Z,101495.34
2023-04-16T10:24:22.197Z,101493.50
2023-04-16T10:26:54.703Z,101503.56
2023-04-16T10:29:30.156Z,101498.66
2023-04-16T10:32:02.722Z,101506.28
2023-04-16T10:34:35.163Z,101510.41
2023-04-16T10:37:06.002Z,101507.91
2023-04-16T10:39:40.294Z,101501.41
2023-04-16T10:42:13.066Z,101513.22
2023-04-16T10:44:49.297Z,101507.28
2023-04-16T10:47:20.329Z,101501.41
2023-04-16T10:49:51.369Z,101509.81
2023-04-16T10:52:22.696Z,101510.66
2023-04-16T10:54:56.350Z,101506.25
2023-04-16T10:57:32.593Z,101506.06
2023-04-16T11:00:06.467Z,101504.00
2023-04-16T11:02:37.303Z,101504.41
2023-04-16T11:05:09.808Z,101509.88
2023-04-16T11:07:40.660Z,101506.22
2023-04-16T11:10:16.263Z,101504.91
2023-04-16T11:12:49.809Z,101504.09
2023-04-16T11:15:23.622Z,101514.97
2023-04-16T11:17:55.056Z,101514.06
2023-04-16T11:20:28.141Z,101514.44
2023-04-16T11:23:00.084Z,101510.25
2023-04-16T11:25:34.317Z,101516.19
2023-04-16T11:28:05.212Z,101518.13
2023-04-16T11:30:40.950Z,101517.13
2023-04-16T11:33:12.989Z,101515.53
2023-04-16T11:35:46.092Z,101506.72
2023-04-16T11:38:16.768Z,101509.34
2023-04-16T11:40:48.001Z,101521.97
2023-04-16T11:43:20.016Z,101524.09
2023-04-16T11:46:12.869Z,101527.00
2023-04-16T11:48:51.602Z,101502.31
2023-04-16T11:51:23.738Z,101530.13
2023-04-16T11:53:56.383Z,101523.31
2023-04-16T11:56:30.623Z,101525.69
2023-04-16T11:59:14.023Z,101524.69
2023-04-16T12:01:50.141Z,101531.31
2023-04-16T12:04:24.720Z,101523.41
2023-04-16T12:07:08.782Z,101522.59
2023-04-16T12:09:40.947Z,101531.78
2023-04-16T12:12:31.593Z,101527.31
2023-04-16T12:15:04.101Z,101529.09
2023-04-16T12:17:39.294Z,101508.53
2023-04-16T12:20:13.089Z,101524.97
2023-04-16T12:22:52.981Z,101488.22
2023-04-16T12:25:23.706Z,101532.66
2023-04-16T12:27:58.704Z,101532.91
2023-04-16T12:30:31.042Z,101533.56
2023-04-16T12:33:22.097Z,101530.06
2023-04-16T12:35:52.861Z,101532.41
2023-04-16T12:38:24.686Z,101534.38
2023-04-16T12:40:57.403Z,101536.97
2023-04-16T12:43:28.746Z,101532.16
2023-04-16T12:45:59.470Z,101540.63
2023-04-16T12:48:32.800Z,101532.38
2023-04-16T12:51:03.426Z,101521.56
2023-04-16T12:53:34.048Z,101532.13
2023-04-16T12:56:04.904Z,101527.81
2023-04-16T12:58:35.647Z,101522.09
2023-04-16T13:01:06.588Z,101530.78
2023-04-16T13:03:39.977Z,101526.78
2023-04-16T13:06:11.500Z,101526.38
2023-04-16T13:08:42.498Z,101522.38
2023-04-16T13:11:13.743Z,101518.81
2023-04-16T13:13:44.803Z,101524.78
2023-04-16T13:16:15.544Z,101526.25
2023-04-16T13:18:48.927Z,101519.09
2023-04-16T13:21:19.841Z,101476.13
2023-04-16T13:23:50.779Z,101527.09
2023-04-16T13:26:22.306Z,101521.00
2023-04-16T13:28:53.300Z,101523.06
2023-04-16T13:31:24.441Z,101523.00
2023-04-16T13:33:57.718Z,101518.22
2023-04-16T13:36:30.248Z,101515.94
2023-04-16T13:39:01.014Z,101510.91
2023-04-16T13:41:32.003Z,101517.97
2023-04-16T13:44:02.799Z,101515.34
2023-04-16T13:46:33.729Z,101498.28
2023-04-16T13:49:07.124Z,101506.72
2023-04-16T13:51:37.978Z,101506.28
2023-04-16T13:54:08.885Z,101506.00
2023-04-16T13:56:39.642Z,101504.22
2023-04-16T13:59:10.892Z,101499.88
2023-04-16T14:01:41.986Z,101503.28
2023-04-16T14:04:16.235Z,101504.75
2023-04-16T14:06:47.309Z,101504.09
2023-04-16T14:09:18.481Z,101503.25
2023-04-16T14:11:49.064Z,101506.81
2023-04-16T14:14:19.790Z,101469.69
2023-04-16T14:16:50.918Z,101511.78
2023-04-16T14:19:24.498Z,101505.13
2023-04-16T14:21:55.192Z,101507.97
2023-04-16T14:24:25.967Z,101509.00
2023-04-16T14:26:56.683Z,101507.22
2023-04-16T14:29:27.326Z,101509.63
2023-04-16T14:31:58.129Z,101518.69
2023-04-16T14:34:31.590Z,101516.75
2023-04-16T14:37:02.550Z,101513.19
2023-04-16T14:39:33.729Z,101516.75
2023-04-16T14:42:04.477Z,101515.41
2023-04-16T14:44:35.942Z,101518.50
2023-04-16T14:47:06.956Z,101513.00
2023-04-16T14:49:40.268Z,101518.66
2023-04-16T14:52:11.079Z,101512.72
2023-04-16T14:54:41.785Z,101518.38
2023-04-16T14:57:12.606Z,101512.56
2023-04-16T14:59:43.304Z,101521.81
2023-04-16T15:02:14.450Z,101517.91
2023-04-16T15:04:47.770Z,101513.16
2023-04-16T15:07:18.424Z,101520.47
2023-04-16T15:09:49.121Z,101513.00
2023-04-16T15:12:20.055Z,101516.75
2023-04-16T15:14:50.787Z,101525.19
2023-04-16T15:17:22.266Z,101523.38
2023-04-16T15:19:55.915Z,101506.88
2023-04-16T15:22:26.802Z,101522.94
2023-04-16T15:24:57.688Z,101524.41
2023-04-16T15:27:28.906Z,101520.25
2023-04-16T15:29:59.899Z,101528.28
2023-04-16T15:32:30.916Z,101530.94
2023-04-16T15:35:06.225Z,101537.34
2023-04-16T15:37:37.018Z,101540.41
2023-04-16T15:40:09.350Z,101546.66
2023-04-16T15:42:40.920Z,101543.41
2023-04-16T15:45:12.678Z,101548.16
2023-04-16T15:47:43.353Z,101542.03
2023-04-16T15:50:16.735Z,101536.34
2023-04-16T15:52:48.451Z,101550.06
2023-04-16T15:55:21.124Z,101541.19
2023-04-16T15:57:52.520Z,101542.84
2023-04-16T16:00:24.417Z,101522.31
2023-04-16T16:02:55.286Z,101543.78
2023-04-16T16:05:28.596Z,101545.97
2023-04-16T16:08:01.912Z,101550.41
2023-04-16T16:10:32.526Z,101536.75
2023-04-16T16:13:05.570Z,101544.41
2023-04-16T16:15:36.475Z,101544.09
2023-04-16T16:18:07.206Z,101553.31
2023-04-16T16:20:40.837Z,101552.41
2023-04-16T16:23:11.804Z,101555.13
2023-04-16T16:25:42.938Z,101550.06
2023-04-16T16:28:13.874Z,101545.28
2023-04-16T16:30:45.149Z,101555.84
2023-04-16T16:33:16.541Z,101557.66
2023-04-16T16:35:50.021Z,101558.38
2023-04-16T16:38:21.109Z,101560.28
2023-04-16T16:40:54.255Z,101566.53
2023-04-16T16:43:25.361Z,101573.91
2023-04-16T16:45:56.093Z,101567.22
2023-04-16T16:48:26.643Z,101574.03
2023-04-16T16:51:00.125Z,101569.56
2023-04-16T16:53:30.915Z,101571.19
2023-04-16T16:56:01.829Z,101572.63
2023-04-16T16:58:32.402Z,101572.75
2023-04-16T17:01:03.365Z,101576.91
2023-04-16T17:03:34.222Z,101585.91
2023-04-16T17:06:07.977Z,101583.94
2023-04-16T17:08:39.385Z,101579.72
2023-04-16T17:11:10.055Z,101589.97
2023-04-16T17:13:40.812Z,101591.44
2023-04-16T17:16:12.053Z,101590.31
2023-04-16T17:18:42.802Z,101584.63
2023-04-16T17:21:16.788Z,101592.28
2023-04-16T17:23:47.344Z,101597.59
2023-04-16T17:26:18.094Z,101592.22
2023-04-16T17:28:49.042Z,101598.41
2023-04-16T17:31:19.923Z,101598.38
2023-04-16T17:33:50.857Z,101600.56
2023-04-16T17:36:25.649Z,101596.56
2023-04-16T17:38:56.232Z,101606.66
2023-04-16T17:41:26.973Z,101609.66
2023-04-16T17:43:57.620Z,101610.88
2023-04-16T17:46:28.481Z,101627.31
2023-04-16T17:48:59.237Z,101616.03
2023-04-16T17:51:32.834Z,101615.28
2023-04-16T17:54:03.832Z,101625.94
2023-04-16T17:56:34.897Z,101628.38
2023-04-16T17:59:06.230Z,101621.63
2023-04-16T18:01:36.885Z,101627.59
2023-04-16T18:04:07.786Z,101632.84
2023-04-16T18:06:41.064Z,101635.56
2023-04-16T18:09:12.686Z,101642.84
2023-04-16T18:11:43.568Z,101635.66
2023-04-16T18:14:16.975Z,101644.69
2023-04-16T18:16:49.840Z,101648.38
2023-04-16T18:19:20.759Z,101652.91
2023-04-16T18:21:54.020Z,101650.47
2023-04-16T18:24:24.682Z,101660.22
2023-04-16T18:26:55.436Z,101662.81
2023-04-16T18:29:26.487Z,101668.44
2023-04-16T18:31:57.228Z,101641.78
2023-04-16T18:34:29.818Z,101669.84
2023-04-16T18:37:03.520Z,101638.91
2023-04-16T18:39:36.092Z,101671.38
2023-04-16T18:42:06.953Z,101683.13
2023-04-16T18:44:37.572Z,101683.53
2023-04-16T18:47:08.401Z,101686.66
2023-04-16T18:49:39.008Z,101664.63
2023-04-16T18:52:12.331Z,101689.63
2023-04-16T18:54:43.749Z,101694.13
2023-04-16T18:57:16.894Z,101693.66
2023-04-16T18:59:47.867Z,101702.88
2023-04-16T19:02:18.601Z,101702.19
2023-04-16T19:04:49.785Z,101698.66
2023-04-16T19:07:22.951Z,101704.06
2023-04-16T19:09:53.551Z,101710.59
2023-04-16T19:12:25.006Z,101719.91
2023-04-16T19:14:56.705Z,101719.38
2023-04-16T19:17:28.330Z,101716.84
2023-04-16T19:20:00.050Z,101715.25
2023-04-16T19:22:34.397Z,101717.44
2023-04-16T19:25:05.519Z,101727.50
2023-04-16T19:27:37.355Z,101724.97
2023-04-16T19:30:10.987Z,101724.22
2023-04-16T19:32:42.601Z,101724.06
2023-04-16T19:35:15.338Z,101732.84
2023-04-16T19:37:49.754Z,101737.50
2023-04-16T19:40:21.982Z,101730.72
2023-04-16T19:42:53.645Z,101735.75
2023-04-16T19:45:27.499Z,101731.25
2023-04-16T19:47:59.622Z,101731.03
2023-04-16T19:50:31.720Z,101741.44
2023-04-16T19:53:06.142Z,101735.16
2023-04-16T19:55:38.080Z,101745.22
2023-04-16T19:58:10.281Z,101721.75
2023-04-16T20:00:43.699Z,101736.59
2023-04-16T20:03:15.749Z,101740.94
2023-04-16T20:05:46.809Z,101738.59
2023-04-16T20:08:20.619Z,101736.06
2023-04-16T20:10:51.419Z,101741.84
2023-04-16T20:13:22.313Z,101725.47
2023-04-16T20:15:55.690Z,101747.19
2023-04-16T20:18:29.413Z,101752.59
2023-04-16T20:21:00.242Z,101741.09
2023-04-16T20:23:33.382Z,101743.59
2023-04-16T20:26:04.714Z,101743.97
2023-04-16T20:28:35.986Z,101754.03
2023-04-16T20:31:07.389Z,101750.78
2023-04-16T20:33:39.272Z,101753.31
2023-04-16T20:36:11.133Z,101736.75
2023-04-16T20:38:45.218Z,101745.06
2023-04-16T20:41:20.602Z,101752.22
2023-04-16T20:43:53.453Z,101756.19
2023-04-16T20:46:30.408Z,101750.09
2023-04-16T20:49:01.271Z,101751.91
2023-04-16T20:51:32.392Z,101747.19
2023-04-16T20:54:06.434Z,101743.28
2023-04-16T20:56:45.103Z,101742.53
2023-04-16T20:59:16.175Z,101750.25
2023-04-16T21:01:48.521Z,101746.47
2023-04-16T21:04:22.840Z,101744.69
2023-04-16T21:06:55.368Z,101746.84
2023-04-16T21:09:28.675Z,101754.25
2023-04-16T21:11:59.403Z,101748.81
2023-04-16T21:14:30.044Z,101752.94
2023-04-16T21:17:01.280Z,101761.94
2023-04-16T21:19:32.145Z,101751.38
2023-04-16T21:22:02.903Z,101758.38
2023-04-16T21:24:37.373Z,101761.22
2023-04-16T21:27:08.031Z,101754.25
2023-04-16T21:29:39.125Z,101762.31
2023-04-16T21:32:09.929Z,101760.69
2023-04-16T21:34:40.898Z,101767.00
2023-04-16T21:37:11.646Z,101761.97
2023-04-16T21:39:44.914Z,101759.06
2023-04-16T21:42:15.995Z,101757.25
2023-04-16T21:44:47.029Z,101764.09
2023-04-16T21:47:17.785Z,101761.97
2023-04-16T21:49:48.396Z,101767.91
2023-04-16T21:52:21.008Z,101765.94
2023-04-16T21:54:57.603Z,101757.88
2023-04-16T21:57:28.338Z,101765.59
2023-04-16T21:59:58.991Z,101765.22
2023-04-16T22:02:29.773Z,101772.75
2023-04-16T22:05:00.855Z,101777.44
2023-04-16T22:07:31.488Z,101770.97
2023-04-16T22:10:04.919Z,101772.94
2023-04-16T22:12:37.909Z,101764.00
2023-04-16T22:15:10.462Z,101770.28
2023-04-16T22:17:41.855Z,101770.50
2023-04-16T22:20:13.662Z,101771.75
2023-04-16T22:22:44.732Z,101772.25
2023-04-16T22:25:18.534Z,101775.84
2023-04-16T22:27:49.447Z,101773.88
2023-04-16T22:30:20.943Z,101782.16
2023-04-16T22:32:52.422Z,101778.03
2023-04-16T22:35:23.733Z,101773.34
2023-04-16T22:37:54.811Z,101773.72
2023-04-16T22:40:34.210Z,101779.28
2023-04-16T22:43:05.037Z,101774.59
2023-04-16T22:45:36.110Z,101776.22
2023-04-16T22:48:07.044Z,101771.75
2023-04-16T22:50:37.871Z,101780.38
2023-04-16T22:53:08.471Z,101776.78
2023-04-16T22:55:41.582Z,101778.91
2023-04-16T22:58:12.438Z,101767.25
2023-04-16T23:00:43.630Z,101775.19
2023-04-16T23:03:14.513Z,101772.47
2023-04-16T23:05:45.148Z,101777.50
2023-04-16T23:08:16.020Z,101770.31
2023-04-16T23:10:49.352Z,101773.41
2023-04-16T23:13:20.274Z,101766.38
2023-04-16T23:15:51.107Z,101733.03
2023-04-16T23:18:21.808Z,101760.31
2023-04-16T23:20:54.018Z,101779.69
2023-04-16T23:23:24.909Z,101777.88
2023-04-16T23:25:58.283Z,101772.13
2023-04-16T23:28:28.835Z,101782.53
2023-04-16T23:30:59.527Z,101779.84
2023-04-16T23:33:30.784Z,101780.56
2023-04-16T23:36:01.826Z,101774.47
2023-04-16T23:38:32.474Z,101778.97
2023-04-16T23:41:05.919Z,101778.06
2023-04-16T23:43:37.037Z,101784.50
2023-04-16T23:46:07.751Z,101785.44
2023-04-16T23:48:38.457Z,101774.47
2023-04-16T23:51:09.161Z,101782.91
2023-04-16T23:53:40.959Z,101762.09
2023-04-16T23:56:15.607Z,101775.19
2023-04-16T23:58:46.375Z,101781.09
